Time;durP1;ratioP1;P1;durP2;ratioP2;P2;SDS_P1;SDS_P2;PMS_P1;PMS_P2;Temp;Humidity;BMP_temperature;BMP_pressure;BME280_temperature;BME280_humidity;BME280_pressure;Samples;Min_cycle;Max_cycle;Signal;HPM_P1;HPM_P2
2021/10/27 00:01:50;;;;;;;31.55;19.92;;;;;;;8.26;83.29;101640.55;1760997;80;21061;-79
2021/10/27 00:04:17;;;;;;;28.90;20.10;;;;;;;8.30;83.21;101639.48;1790261;80;21571;-79
2021/10/27 00:06:44;;;;;;;29.98;20.75;;;;;;;8.28;82.93;101627.13;1790204;80;21535;-79
2021/10/27 00:09:17;;;;;;;24.92;18.57;;;;;;;8.24;82.84;101637.88;1789775;80;21129;-80
2021/10/27 00:11:43;;;;;;;26.90;20.08;;;;;;;8.18;82.82;101627.99;1760670;80;21059;-80
2021/10/27 00:14:10;;;;;;;28.87;21.23;;;;;;;8.16;82.91;101633.97;1790103;80;21583;-79
2021/10/27 00:16:37;;;;;;;27.65;20.10;;;;;;;8.13;82.91;101636.45;1790167;80;21769;-79
2021/10/27 00:19:04;;;;;;;30.32;19.80;;;;;;;8.09;82.91;101643.66;1790099;80;21053;-79
2021/10/27 00:21:31;;;;;;;23.92;19.50;;;;;;;8.04;82.94;101640.83;1790059;80;21054;-79
2021/10/27 00:23:58;;;;;;;31.37;20.55;;;;;;;8.00;83.00;101637.99;1790088;80;21135;-79
2021/10/27 00:26:24;;;;;;;28.98;20.10;;;;;;;7.95;83.07;101641.67;1790136;80;21061;-79
2021/10/27 00:28:52;;;;;;;29.42;20.97;;;;;;;7.92;83.17;101643.75;1790317;80;21761;-79
2021/10/27 00:31:19;;;;;;;27.98;20.08;;;;;;;7.88;83.18;101641.80;1790286;80;21133;-79
2021/10/27 00:33:46;;;;;;;28.92;20.82;;;;;;;7.85;83.24;101642.05;1790181;80;21054;-79
2021/10/27 00:36:13;;;;;;;25.88;20.62;;;;;;;7.82;83.23;101643.20;1790114;80;21065;-80
2021/10/27 00:38:41;;;;;;;33.65;21.12;;;;;;;7.77;83.31;101642.95;1760756;80;21595;-79
2021/10/27 00:41:09;;;;;;;43.25;22.77;;;;;;;7.73;83.36;101635.76;1790038;80;21757;-80
2021/10/27 00:43:37;;;;;;;29.63;20.92;;;;;;;7.71;83.49;101641.34;1789082;80;21544;-79
2021/10/27 00:46:11;;;;;;;26.90;20.62;;;;;;;7.68;83.62;101640.78;1790045;80;21097;-79
2021/10/27 00:48:39;;;;;;;29.70;20.97;;;;;;;7.67;83.65;101634.14;1758397;79;22776;-79
2021/10/27 00:51:06;;;;;;;33.55;22.13;;;;;;;7.69;83.89;101642.56;1777895;80;21134;-80
2021/10/27 00:53:35;;;;;;;30.32;20.92;;;;;;;7.70;83.91;101633.00;1777546;80;21304;-80
2021/10/27 00:56:03;;;;;;;30.23;21.33;;;;;;;7.70;83.99;101632.58;1784803;79;21529;-81
2021/10/27 00:58:29;;;;;;;26.33;19.80;;;;;;;7.73;84.07;101644.55;1796708;79;21062;-80
2021/10/27 01:00:59;;;;;;;26.33;20.10;;;;;;;7.77;84.19;101640.33;1796146;79;21250;-78
2021/10/27 01:03:29;;;;;;;30.05;21.60;;;;;;;7.76;84.08;101633.30;1796361;79;21040;-78
2021/10/27 01:05:56;;;;;;;30.15;21.10;;;;;;;7.74;83.95;101636.27;1775202;80;21761;-79
2021/10/27 01:08:23;;;;;;;29.05;20.60;;;;;;;7.71;83.95;101626.92;1788792;80;21054;-79
2021/10/27 01:10:50;;;;;;;30.40;20.50;;;;;;;7.70;84.01;101627.77;1758655;81;21129;-79
2021/10/27 01:13:18;;;;;;;27.05;20.23;;;;;;;7.67;84.02;101628.48;1760300;80;21074;-80
2021/10/27 01:15:45;;;;;;;28.02;21.17;;;;;;;7.64;84.05;101627.42;1790793;80;21611;-79
2021/10/27 01:18:12;;;;;;;26.90;19.27;;;;;;;7.63;84.14;101623.91;1790236;80;22546;-79
2021/10/27 01:20:40;;;;;;;29.63;19.87;;;;;;;7.61;84.11;101625.98;1789722;80;21022;-79
2021/10/27 01:23:09;;;;;;;31.45;20.57;;;;;;;7.57;84.08;101623.19;1789848;80;21070;-79
2021/10/27 01:25:39;;;;;;;27.95;20.48;;;;;;;7.54;84.10;101628.27;1791000;80;21072;-79
2021/10/27 01:28:04;;;;;;;30.27;21.52;;;;;;;7.53;84.19;101628.21;1789561;80;21054;-80
2021/10/27 01:30:31;;;;;;;26.75;19.70;;;;;;;7.51;84.25;101633.79;1790702;80;22559;-80
2021/10/27 01:33:01;;;;;;;29.23;20.72;;;;;;;7.49;84.31;101632.39;1789991;80;21007;-80
2021/10/27 01:35:26;;;;;;;27.90;20.17;;;;;;;7.47;84.39;101630.11;1790179;80;21054;-80
2021/10/27 01:37:57;;;;;;;28.55;20.62;;;;;;;7.47;84.45;101629.19;1790114;80;21073;-80
2021/10/27 01:40:23;;;;;;;28.87;21.35;;;;;;;7.45;84.54;101623.89;1790099;79;21046;-80
2021/10/27 01:42:56;;;;;;;28.47;20.92;;;;;;;7.44;84.56;101632.98;1790761;80;21754;-80
2021/10/27 01:45:21;;;;;;;28.42;20.97;;;;;;;7.41;84.49;101627.14;1789957;79;21146;-79
2021/10/27 01:47:48;;;;;;;30.88;22.37;;;;;;;7.39;84.57;101628.41;1790766;79;21066;-78
2021/10/27 01:50:28;;;;;;;28.30;21.02;;;;;;;7.39;84.68;101626.17;1784773;79;21067;-79
2021/10/27 01:52:55;;;;;;;27.65;20.77;;;;;;;7.36;84.67;101628.23;1750746;81;21575;-79
2021/10/27 01:55:22;;;;;;;31.45;22.07;;;;;;;7.35;84.65;101621.59;1782012;80;21707;-79
2021/10/27 01:57:49;;;;;;;31.57;21.60;;;;;;;7.35;84.83;101625.11;1751122;81;20999;-80
2021/10/27 02:00:17;;;;;;;29.37;20.80;;;;;;;7.35;84.87;101629.45;1782194;80;21619;-78
2021/10/27 02:02:43;;;;;;;31.85;21.70;;;;;;;7.33;84.96;101625.44;1782053;80;21046;-79
2021/10/27 02:05:13;;;;;;;29.82;21.35;;;;;;;7.35;85.11;101629.45;1750698;81;22362;-78
2021/10/27 02:07:40;;;;;;;29.50;21.10;;;;;;;7.36;85.08;101636.51;1781972;79;21866;-79
2021/10/27 02:10:12;;;;;;;31.05;20.97;;;;;;;7.35;85.15;101629.04;1764842;81;21069;-79
2021/10/27 02:12:38;;;;;;;30.70;21.50;;;;;;;7.36;85.14;101628.66;1750800;81;21078;-79
2021/10/27 02:15:07;;;;;;;31.77;21.93;;;;;;;7.35;85.20;101622.91;1765123;81;21093;-79
2021/10/27 02:17:33;;;;;;;32.20;21.80;;;;;;;7.35;85.22;101618.98;1751347;81;21011;-79
2021/10/27 02:20:03;;;;;;;31.90;20.60;;;;;;;7.34;85.28;101619.40;1765264;81;22584;-79
2021/10/27 02:22:32;;;;;;;28.65;20.05;;;;;;;7.36;85.38;101622.11;1751061;81;21133;-79
2021/10/27 02:25:02;;;;;;;31.48;20.70;;;;;;;7.37;85.43;101620.84;1736709;81;21046;-78
2021/10/27 02:27:28;;;;;;;33.48;20.95;;;;;;;7.38;85.48;101622.66;1751172;81;21066;-78
2021/10/27 02:29:57;;;;;;;29.82;21.27;;;;;;;7.41;85.55;101621.91;1765156;81;21062;-80
2021/10/27 02:32:24;;;;;;;29.35;20.12;;;;;;;7.40;85.50;101614.89;1751669;81;21759;-79
2021/10/27 02:34:54;;;;;;;34.27;22.13;;;;;;;7.41;85.45;101619.28;1765115;81;21066;-79
2021/10/27 02:37:21;;;;;;;29.77;20.30;;;;;;;7.39;85.40;101617.00;1751419;81;21141;-78
2021/10/27 02:39:48;;;;;;;34.55;22.30;;;;;;;7.37;85.48;101618.64;1765481;81;21110;-79
2021/10/27 02:42:15;;;;;;;30.17;21.52;;;;;;;7.39;85.56;101616.62;1751227;81;21134;-80
2021/10/27 02:44:47;;;;;;;34.85;22.45;;;;;;;7.42;85.65;101617.17;1736742;81;21105;-80
2021/10/27 02:47:14;;;;;;;29.30;21.23;;;;;;;7.48;85.72;101624.45;1750820;81;21085;-80
2021/10/27 02:49:44;;;;;;;36.50;21.15;;;;;;;7.53;85.79;101628.21;1764077;81;21058;-80
2021/10/27 02:52:09;;;;;;;35.00;20.90;;;;;;;7.55;85.69;101630.50;1747486;81;21070;-79
2021/10/27 02:54:36;;;;;;;28.02;20.43;;;;;;;7.56;85.58;101632.28;1817785;78;21540;-80
2021/10/27 02:57:05;;;;;;;33.18;22.55;;;;;;;7.55;85.57;101626.15;1778635;80;21351;-80
2021/10/27 02:59:32;;;;;;;28.05;20.08;;;;;;;7.58;85.63;101625.39;1817861;78;20995;-79
2021/10/27 03:02:01;;;;;;;28.95;21.48;;;;;;;7.59;85.63;101621.55;1758339;80;21102;-79
2021/10/27 03:04:28;;;;;;;29.05;21.57;;;;;;;7.64;85.79;101622.19;1817766;78;21008;-79
2021/10/27 03:06:54;;;;;;;31.33;22.20;;;;;;;7.72;85.87;101623.50;1778954;80;21098;-79
2021/10/27 03:09:23;;;;;;;33.65;21.77;;;;;;;7.80;86.08;101626.08;1784923;78;21607;-80
2021/10/27 03:11:52;;;;;;;30.55;22.05;;;;;;;7.88;86.12;101621.22;1778873;80;21581;-78
2021/10/27 03:14:18;;;;;;;28.70;20.88;;;;;;;7.98;86.20;101623.48;1817546;77;21015;-78
2021/10/27 03:16:45;;;;;;;29.18;20.40;;;;;;;8.09;86.22;101618.75;1817653;78;21042;-78
2021/10/27 03:19:12;;;;;;;29.63;21.57;;;;;;;8.16;86.12;101612.59;1778714;80;21085;-78
2021/10/27 03:21:39;;;;;;;32.83;23.05;;;;;;;8.24;86.07;101606.80;1817714;78;21794;-79
2021/10/27 03:24:07;;;;;;;32.13;22.00;;;;;;;8.31;86.05;101604.53;1778716;80;21052;-79
2021/10/27 03:26:34;;;;;;;32.80;22.50;;;;;;;8.38;85.95;101610.98;1817591;78;21049;-78
2021/10/27 03:29:01;;;;;;;28.62;22.87;;;;;;;8.43;85.86;101613.46;1778636;80;21007;-78
2021/10/27 03:31:29;;;;;;;26.85;21.42;;;;;;;8.49;85.78;101604.98;1784776;78;21085;-77
2021/10/27 03:34:01;;;;;;;33.10;23.10;;;;;;;8.52;85.75;101603.80;1777714;80;21616;-79
2021/10/27 03:36:32;;;;;;;35.08;22.82;;;;;;;8.57;85.74;101603.61;1816899;78;21450;-77
2021/10/27 03:38:59;;;;;;;29.75;22.13;;;;;;;8.61;85.70;101605.54;1817087;78;21047;-78
2021/10/27 03:41:25;;;;;;;31.45;21.62;;;;;;;8.67;85.62;101604.53;1778582;80;21548;-77
2021/10/27 03:43:52;;;;;;;32.00;22.77;;;;;;;8.71;85.60;101606.47;1817717;78;21130;-77
2021/10/27 03:46:26;;;;;;;34.90;22.22;;;;;;;8.77;85.53;101608.91;1778363;80;21668;-78
2021/10/27 03:48:47;;;;;;;33.58;21.80;;;;;;;8.80;85.48;101607.28;1775606;80;21583;-78
2021/10/27 03:51:16;;;;;;;30.48;22.50;;;;;;;8.84;85.50;101597.83;1777069;79;21112;-78
2021/10/27 03:53:48;;;;;;;29.25;22.02;;;;;;;8.87;85.42;101600.60;1777459;80;21066;-78
2021/10/27 03:56:13;;;;;;;33.98;22.73;;;;;;;8.91;85.38;101602.53;1777740;80;21668;-79
2021/10/27 03:58:40;;;;;;;34.40;25.32;;;;;;;8.94;85.35;101603.57;1778231;80;21955;-80
2021/10/27 04:01:07;;;;;;;33.42;24.95;;;;;;;8.97;85.35;101606.73;1777973;80;21058;-79
2021/10/27 04:03:37;;;;;;;29.23;22.27;;;;;;;9.00;85.31;101606.89;1778139;80;21050;-80
2021/10/27 04:06:10;;;;;;;32.23;23.30;;;;;;;9.02;85.22;101601.71;1777831;80;21586;-80
2021/10/27 04:08:35;;;;;;;29.65;21.97;;;;;;;9.03;85.16;101604.41;1777708;80;21044;-80
2021/10/27 04:11:01;;;;;;;32.75;22.07;;;;;;;9.06;85.17;101598.39;1778123;80;22366;-82
2021/10/27 04:13:28;;;;;;;31.75;22.87;;;;;;;9.08;85.19;101603.29;1778119;80;20999;-81
2021/10/27 04:15:58;;;;;;;30.27;23.75;;;;;;;9.09;85.12;101599.42;1778175;80;21079;-79
2021/10/27 04:18:27;;;;;;;32.05;23.65;;;;;;;9.12;85.16;101603.91;1777755;80;21133;-81
2021/10/27 04:20:52;;;;;;;32.15;23.40;;;;;;;9.17;85.14;101608.06;1777975;80;21058;-80
2021/10/27 04:23:21;;;;;;;31.90;23.95;;;;;;;9.17;85.05;101601.50;1777950;80;21109;-84
2021/10/27 04:25:49;;;;;;;32.15;24.70;;;;;;;9.19;85.09;101602.04;1770319;79;21090;-89
2021/10/27 04:28:18;;;;;;;34.15;24.27;;;;;;;9.21;85.03;101605.63;1745382;80;21110;-80
2021/10/27 04:30:45;;;;;;;37.65;23.73;;;;;;;9.23;85.03;101605.70;1778358;80;21077;-80
2021/10/27 04:33:21;;;;;;;33.80;25.27;;;;;;;9.26;85.04;101597.97;1778445;80;21524;-84
2021/10/27 04:35:53;;;;;;;37.83;24.18;;;;;;;9.29;84.96;101600.70;1777876;80;21754;-78
2021/10/27 04:38:20;;;;;;;30.88;23.32;;;;;;;9.30;84.94;101595.52;1777471;80;21062;-83
2021/10/27 04:40:50;;;;;;;38.50;25.35;;;;;;;9.32;84.86;101592.97;1778041;80;21063;-83
2021/10/27 04:43:16;;;;;;;35.05;25.30;;;;;;;9.33;84.82;101590.84;1777628;80;21086;-80
2021/10/27 04:45:44;;;;;;;35.63;25.25;;;;;;;9.32;84.78;101591.23;1777315;80;21087;-83
2021/10/27 04:48:15;;;;;;;36.90;25.68;;;;;;;9.35;84.75;101590.48;1777753;80;21839;-83
2021/10/27 04:50:47;;;;;;;33.13;24.35;;;;;;;9.34;84.71;101592.62;1772925;80;21651;-83
2021/10/27 04:53:14;;;;;;;32.05;26.00;;;;;;;9.35;84.67;101586.55;1768036;80;21011;-83
2021/10/27 04:55:42;;;;;;;32.42;26.05;;;;;;;9.35;84.66;101590.48;1740422;81;21182;-85
2021/10/27 04:58:09;;;;;;;36.65;25.27;;;;;;;9.36;84.66;101585.70;1768476;80;21090;-83
2021/10/27 05:00:37;;;;;;;35.17;25.17;;;;;;;9.38;84.67;101584.03;1767821;80;21000;-83
2021/10/27 05:03:05;;;;;;;31.77;25.20;;;;;;;9.40;84.65;101574.91;1768568;80;21129;-83
2021/10/27 05:05:35;;;;;;;32.10;24.72;;;;;;;9.40;84.61;101575.80;1768568;80;21618;-75
2021/10/27 05:08:03;;;;;;;32.08;24.80;;;;;;;9.41;84.55;101571.46;1739758;81;21581;-73
2021/10/27 05:10:31;;;;;;;32.00;25.68;;;;;;;9.41;84.53;101575.41;1768504;80;21110;-75
2021/10/27 05:12:58;;;;;;;37.23;25.37;;;;;;;9.42;84.57;101573.23;1768870;81;21846;-75
2021/10/27 05:15:28;;;;;;;34.75;27.13;;;;;;;9.42;84.52;101575.87;1768574;80;21075;-75
2021/10/27 05:17:53;;;;;;;35.03;27.17;;;;;;;9.44;84.58;101575.13;1768354;81;21521;-75
2021/10/27 05:20:19;;;;;;;33.40;25.68;;;;;;;9.46;84.54;101576.08;1768691;80;21074;-75
2021/10/27 05:22:46;;;;;;;40.30;29.23;;;;;;;9.48;84.49;101585.35;1768615;81;21073;-75
2021/10/27 05:25:13;;;;;;;40.67;27.82;;;;;;;9.47;84.41;101575.66;1768649;81;21820;-75
2021/10/27 05:27:40;;;;;;;39.80;27.93;;;;;;;9.50;84.48;101577.11;1768627;81;21059;-75
2021/10/27 05:30:09;;;;;;;35.40;27.10;;;;;;;9.51;84.45;101586.34;1768222;81;21046;-74
2021/10/27 05:32:37;;;;;;;40.00;28.05;;;;;;;9.54;84.41;101581.66;1768637;81;21051;-75
2021/10/27 05:35:04;;;;;;;36.73;27.48;;;;;;;9.56;84.43;101591.82;1768389;80;21158;-75
2021/10/27 05:37:31;;;;;;;39.13;27.32;;;;;;;9.60;84.50;101590.22;1768593;80;21799;-75
2021/10/27 05:39:57;;;;;;;38.40;27.20;;;;;;;9.64;84.44;101593.03;1768510;81;21035;-75
2021/10/27 05:42:28;;;;;;;39.20;27.20;;;;;;;9.67;84.42;101590.97;1768689;80;21612;-75
2021/10/27 05:44:53;;;;;;;40.98;28.42;;;;;;;9.69;84.35;101594.56;1768231;81;21144;-74
2021/10/27 05:47:19;;;;;;;41.02;29.10;;;;;;;9.72;84.37;101602.55;1768567;81;21098;-75
2021/10/27 05:55:04;;;;;;;64.77;41.73;;;;;;;9.83;84.33;101602.58;1768287;80;21055;-75
2021/10/27 05:57:59;;;;;;;43.92;32.58;;;;;;;;;;1767662;80;21090;-75
2021/10/27 06:00:00;;;;;;;48.98;32.53;;;;;;;9.89;84.20;101605.89;1768240;81;22149;-75
2021/10/27 06:02:27;;;;;;;50.90;31.75;;;;;;;9.92;84.22;101606.91;1768998;81;21643;-74
2021/10/27 06:04:55;;;;;;;40.63;29.63;;;;;;;9.96;84.15;101604.00;1768337;80;21078;-74
2021/10/27 06:07:22;;;;;;;40.75;28.70;;;;;;;9.99;84.16;101600.61;1768791;80;21043;-74
2021/10/27 06:09:50;;;;;;;39.38;27.27;;;;;;;10.03;84.15;101599.90;1768799;80;21548;-75
2021/10/27 06:12:18;;;;;;;44.10;30.00;;;;;;;10.07;84.16;101613.22;1768725;81;21063;-75
2021/10/27 06:14:45;;;;;;;49.40;30.70;;;;;;;10.11;84.12;101609.87;1768909;80;21470;-75
2021/10/27 06:17:12;;;;;;;37.00;26.40;;;;;;;10.15;84.10;101610.90;1768585;81;21031;-74
2021/10/27 06:19:39;;;;;;;59.30;33.55;;;;;;;10.20;84.09;101606.73;1768804;81;21553;-75
2021/10/27 06:22:09;;;;;;;44.70;32.08;;;;;;;10.25;84.04;101610.88;1767838;80;21054;-75
2021/10/27 06:24:36;;;;;;;47.55;31.17;;;;;;;10.29;83.98;101612.80;1768604;81;21486;-75
2021/10/27 06:27:05;;;;;;;43.28;30.65;;;;;;;10.33;83.94;101606.84;1768753;80;21710;-75
2021/10/27 06:29:37;;;;;;;44.90;28.65;;;;;;;10.33;83.91;101600.69;1768700;80;21532;-74
2021/10/27 06:32:19;;;;;;;45.92;28.55;;;;;;;10.46;84.02;101616.13;1767973;81;21066;-74
2021/10/27 06:34:41;;;;;;;59.03;39.73;;;;;;;10.55;84.01;101615.56;1766840;80;21098;-74
2021/10/27 06:47:44;;;;;;;66.12;37.00;;;;;;;10.78;83.59;101612.09;1745480;81;21079;-75
2021/10/27 06:50:11;;;;;;;48.55;35.05;;;;;;;10.86;83.58;101612.38;1768670;81;21013;-75
2021/10/27 06:52:39;;;;;;;55.90;37.55;;;;;;;10.92;83.45;101619.61;1786588;80;21740;-75
2021/10/27 06:55:07;;;;;;;51.85;32.90;;;;;;;10.93;83.35;101617.05;1786792;80;21058;-75
2021/10/27 06:57:35;;;;;;;47.33;31.97;;;;;;;10.96;83.19;101620.20;1786536;80;21587;-74
2021/10/27 07:00:17;;;;;;;67.53;35.48;;;;;;;10.92;83.07;101612.59;1786861;80;21062;-74
2021/10/27 07:03:02;;;;;;;73.55;42.35;;;;;;;10.94;83.08;101623.20;1786146;80;21045;-75
2021/10/27 07:16:13;;;;;;;70.83;42.48;;;;;;;11.18;82.98;101610.92;1786855;80;21062;-75
2021/10/27 07:18:40;;;;;;;58.08;36.20;;;;;;;11.25;82.88;101614.27;1787133;80;22380;-74
2021/10/27 07:21:06;;;;;;;55.03;34.58;;;;;;;11.29;82.77;101612.64;1786767;80;20991;-75
2021/10/27 07:23:34;;;;;;;58.30;35.88;;;;;;;11.33;82.76;101614.53;1786901;80;21564;-75
2021/10/27 07:26:01;;;;;;;66.57;37.90;;;;;;;11.40;82.74;101616.98;1786846;80;21125;-75
2021/10/27 07:28:30;;;;;;;53.83;37.28;;;;;;;11.45;82.64;101620.26;1787082;80;21097;-75
2021/10/27 07:31:00;;;;;;;67.87;33.63;;;;;;;11.50;82.57;101616.87;1787101;80;21066;-74
2021/10/27 07:33:28;;;;;;;52.78;33.65;;;;;;;11.55;82.47;101616.63;1787031;80;21098;-74
2021/10/27 07:36:04;;;;;;;43.25;29.02;;;;;;;11.59;82.33;101611.93;1787040;80;21054;-75
2021/10/27 07:41:10;;;;;;;43.30;30.35;;;;;;;11.73;82.20;101610.67;1786900;80;21090;-75
2021/10/27 07:43:37;;;;;;;38.63;26.52;;;;;;;11.83;82.18;101608.80;1786842;80;21866;-75
2021/10/27 07:46:04;;;;;;;38.30;28.10;;;;;;;12.03;82.33;101608.19;1787017;80;21483;-75
2021/10/27 07:48:31;;;;;;;40.73;25.97;;;;;;;12.27;82.33;101612.45;1787193;80;21583;-75
2021/10/27 07:50:58;;;;;;;44.45;29.95;;;;;;;12.51;82.07;101604.84;1785437;79;21086;-75
2021/10/27 07:53:27;;;;;;;50.58;26.65;;;;;;;12.66;81.53;101610.58;1778396;80;21638;-75
2021/10/27 07:55:55;;;;;;;52.30;28.55;;;;;;;12.75;81.25;101608.22;1745308;80;22247;-75
2021/10/27 07:58:24;;;;;;;46.75;29.23;;;;;;;12.91;81.16;101600.73;1778331;80;21046;-75
2021/10/27 08:00:52;;;;;;;41.70;27.65;;;;;;;13.10;81.00;101606.13;1778512;80;21082;-75
2021/10/27 08:03:21;;;;;;;35.52;27.10;;;;;;;13.18;80.55;101601.53;1778427;80;21074;-75
2021/10/27 08:05:48;;;;;;;30.32;25.70;;;;;;;13.16;80.13;101598.39;1778310;80;21113;-75
2021/10/27 08:08:21;;;;;;;32.48;25.70;;;;;;;13.15;79.96;101595.27;1778067;80;22367;-75
2021/10/27 08:10:52;;;;;;;35.40;25.27;;;;;;;13.13;79.80;101596.53;1778419;80;21105;-75
2021/10/27 08:13:19;;;;;;;40.05;25.27;;;;;;;13.05;79.49;101595.44;1777565;80;21055;-75
2021/10/27 08:15:46;;;;;;;36.35;26.70;;;;;;;13.00;79.49;101597.04;1778168;80;21668;-75
2021/10/27 08:18:15;;;;;;;32.05;22.93;;;;;;;13.00;79.64;101596.61;1778183;80;21039;-75
2021/10/27 08:20:43;;;;;;;31.50;24.67;;;;;;;12.97;79.49;101597.86;1778180;80;21810;-75
2021/10/27 08:23:12;;;;;;;30.55;22.85;;;;;;;12.93;79.31;101597.31;1778157;80;21062;-75
2021/10/27 08:25:51;;;;;;;34.83;25.95;;;;;;;12.89;79.18;101593.20;1777996;80;21062;-75
2021/10/27 08:28:12;;;;;;;28.07;20.85;;;;;;;12.84;79.31;101596.61;1775292;80;21012;-75
2021/10/27 08:33:20;;;;;;;33.75;21.35;;;;;;;12.82;79.15;101597.42;1778231;80;21871;-75
2021/10/27 08:35:40;;;;;;;27.13;21.82;;;;;;;12.78;79.13;101593.80;1776389;80;21090;-75
2021/10/27 08:38:07;;;;;;;26.68;19.65;;;;;;;12.72;78.97;101592.27;1778139;80;21046;-75
2021/10/27 08:40:34;;;;;;;23.65;20.23;;;;;;;12.71;79.07;101584.33;1778184;80;21137;-75
2021/10/27 08:43:00;;;;;;;27.95;19.45;;;;;;;12.77;79.25;101584.06;1778175;80;21113;-75
2021/10/27 08:45:28;;;;;;;24.52;19.15;;;;;;;12.86;79.25;101578.16;1778252;80;21738;-75
2021/10/27 08:47:55;;;;;;;21.97;17.70;;;;;;;13.00;79.24;101582.07;1777993;80;21320;-75
2021/10/27 08:50:22;;;;;;;46.33;21.52;;;;;;;13.15;79.16;101581.61;1778233;80;21059;-75
2021/10/27 08:52:49;;;;;;;42.60;20.77;;;;;;;13.23;78.85;101580.50;1770105;80;21209;-75
2021/10/27 08:55:17;;;;;;;63.33;24.32;;;;;;;13.26;78.71;101571.34;1768377;80;21663;-75
2021/10/27 08:57:46;;;;;;;50.67;21.45;;;;;;;13.26;78.42;101567.37;1768635;80;21778;-75
2021/10/27 09:00:39;;;;;;;30.10;16.95;;;;;;;13.21;78.26;101577.84;1768424;80;21042;-75
2021/10/27 09:03:10;;;;;;;26.12;16.67;;;;;;;13.18;78.16;101572.89;1767588;80;21159;-75
2021/10/27 09:05:48;;;;;;;40.08;17.60;;;;;;;13.11;78.14;101573.56;1767624;81;21083;-75
2021/10/27 10:06:35;;;;;;;50.43;34.55;;;;;;;13.17;78.34;101605.45;1778277;80;21900;-74
2021/10/27 10:09:02;;;;;;;26.87;21.33;;;;;;;13.20;78.25;101601.14;1778250;80;21063;-74
2021/10/27 10:11:28;;;;;;;21.87;16.05;;;;;;;13.19;78.05;101602.02;1778391;80;21584;-74
2021/10/27 10:13:56;;;;;;;21.40;17.95;;;;;;;13.23;78.13;101602.97;1778291;80;20995;-74
2021/10/27 10:16:23;;;;;;;23.47;17.85;;;;;;;13.30;78.14;101602.32;1778180;80;21113;-74
2021/10/27 10:18:50;;;;;;;16.93;13.30;;;;;;;13.41;78.24;101602.63;1778279;80;21742;-74
2021/10/27 10:21:25;;;;;;;36.42;14.87;;;;;;;13.58;78.19;101601.75;1778106;80;21089;-74
2021/10/27 10:23:50;;;;;;;18.07;11.47;;;;;;;13.73;78.08;101605.22;1777860;80;21109;-74
2021/10/27 10:26:31;;;;;;;22.70;17.75;;;;;;;13.84;77.73;101598.89;1778219;80;21548;-74
2021/10/27 10:29:01;;;;;;;20.92;13.50;;;;;;;13.87;77.58;101590.60;1778074;80;21789;-74
2021/10/27 10:31:32;;;;;;;16.82;11.48;;;;;;;13.96;77.40;101591.23;1778298;80;21728;-74
2021/10/27 10:34:04;;;;;;;11.38;9.63;;;;;;;14.03;77.31;101593.19;1778328;80;21643;-74
2021/10/27 10:36:33;;;;;;;15.72;10.32;;;;;;;14.08;77.18;101593.31;1745765;80;21058;-74
2021/10/27 10:39:12;;;;;;;13.60;8.25;;;;;;;14.12;77.09;101594.73;1778213;80;21102;-74
2021/10/27 10:41:51;;;;;;;11.28;9.03;;;;;;;14.16;77.04;101593.05;1751100;80;21568;-74
2021/10/27 11:38:21;;;;;;;11.25;8.75;;;;;;;14.40;75.35;101579.49;1786241;79;21061;-75
2021/10/27 11:40:47;;;;;;;17.02;9.45;;;;;;;14.26;75.29;101569.89;1785877;79;21789;-75
2021/10/27 11:43:18;;;;;;;14.78;10.13;;;;;;;14.19;75.47;101564.02;1754213;80;21073;-75
2021/10/27 11:45:55;;;;;;;11.60;10.15;;;;;;;14.15;75.55;101555.10;1777917;80;21086;-75
2021/10/27 11:48:43;;;;;;;16.45;10.95;;;;;;;14.15;75.62;101567.42;1778012;80;21360;-75
2021/10/27 11:51:09;;;;;;;15.20;10.55;;;;;;;14.10;75.61;101568.66;1775844;80;21058;-74
2021/10/27 11:53:36;;;;;;;15.90;10.95;;;;;;;14.08;75.73;101567.72;1753432;80;21765;-74
2021/10/27 11:56:21;;;;;;;12.50;9.78;;;;;;;14.08;75.91;101565.52;1730747;82;21083;-74
2021/10/27 11:58:50;;;;;;;14.03;10.65;;;;;;;14.05;75.70;101558.81;1790038;80;21144;-74
2021/10/27 12:01:40;;;;;;;14.70;10.05;;;;;;;14.03;75.83;101564.06;1730819;82;21139;-74
2021/10/27 12:04:07;;;;;;;16.42;10.43;;;;;;;14.04;75.94;101564.55;1787775;80;21118;-74
2021/10/27 12:09:25;;;;;;;13.22;10.48;;;;;;;13.98;75.94;101565.30;1789960;80;21570;-74
2021/10/27 12:14:25;;;;;;;15.43;10.88;;;;;;;13.86;75.96;101551.75;1789727;80;21149;-74
2021/10/27 12:19:22;;;;;;;14.75;10.80;;;;;;;13.78;76.06;101548.03;1789842;80;21665;-74
2021/10/27 12:22:03;;;;;;;19.32;12.47;;;;;;;13.75;76.11;101539.56;1730916;82;21071;-74
2021/10/27 12:24:33;;;;;;;16.45;12.03;;;;;;;13.75;76.27;101540.01;1790081;80;21327;-74
2021/10/27 12:27:04;;;;;;;15.38;11.65;;;;;;;13.72;76.22;101531.58;1731055;82;21084;-74
2021/10/27 12:29:33;;;;;;;16.70;11.78;;;;;;;13.73;76.31;101532.47;1790004;80;21046;-74
2021/10/27 12:32:11;;;;;;;25.00;11.93;;;;;;;13.72;76.38;101526.28;1730834;82;22702;-74
2021/10/27 12:35:01;;;;;;;26.70;12.35;;;;;;;13.73;76.35;101534.67;1789871;80;21046;-74
2021/10/27 12:37:46;;;;;;;16.73;10.98;;;;;;;13.71;76.36;101528.45;1729933;81;21131;-75
2021/10/27 12:40:32;;;;;;;48.78;13.70;;;;;;;13.68;76.36;101533.66;1789606;80;21106;-75
2021/10/27 12:43:11;;;;;;;33.02;14.83;;;;;;;13.68;76.53;101534.09;1730487;82;21557;-75
2021/10/27 12:45:54;;;;;;;22.58;12.58;;;;;;;13.67;76.53;101536.29;1789851;80;21787;-75
2021/10/27 12:48:24;;;;;;;29.10;12.65;;;;;;;13.67;76.54;101541.58;1730517;81;21131;-75
2021/10/27 12:50:54;;;;;;;39.88;14.23;;;;;;;13.64;76.51;101545.02;1789821;80;21069;-74
2021/10/27 12:53:35;;;;;;;26.00;15.98;;;;;;;13.64;76.61;101540.17;1730645;82;21087;-74
2021/10/27 12:56:18;;;;;;;30.17;19.15;;;;;;;13.64;76.66;101545.02;1786743;80;21603;-74
2021/10/27 12:58:57;;;;;;;35.95;13.83;;;;;;;13.68;76.72;101539.38;1786355;80;21817;-74
2021/10/27 13:04:06;;;;;;;38.90;13.83;;;;;;;13.72;76.68;101537.27;1787046;80;21065;-74
2021/10/27 13:07:14;;;;;;;63.30;19.73;;;;;;;13.70;76.64;101542.95;1785604;80;21260;-74
2021/10/27 13:22:11;;;;;;;24.47;13.35;;;;;;;13.64;76.72;101547.67;1787219;80;21075;-74
2021/10/27 13:32:15;;;;;;;18.57;12.55;;;;;;;13.56;76.81;101551.87;1786836;80;21070;-74
2021/10/27 13:34:39;;;;;;;38.95;26.87;;;;;;;13.51;76.87;101552.19;1786215;80;21065;-74
2021/10/27 13:37:07;;;;;;;33.63;14.03;;;;;;;13.47;76.98;101556.50;1786782;80;22572;-74
2021/10/27 13:42:05;;;;;;;25.12;14.28;;;;;;;13.48;77.06;101549.05;1832148;77;22806;-75
2021/10/27 13:44:34;;;;;;;88.72;18.50;;;;;;;13.41;77.09;101549.73;1790145;79;21284;-75
2021/10/27 13:57:40;;;;;;;45.23;15.45;;;;;;;13.35;77.18;101564.12;1790625;80;21582;-75
2021/10/27 13:58:19;;;;;;;27.17;14.10;;;;;;;13.31;77.42;101556.53;1770163;80;21066;-75
2021/10/27 14:06:10;;;;;;;20.17;12.73;;;;;;;13.28;77.46;101547.16;1790604;79;21344;-75
2021/10/27 14:08:46;;;;;;;16.87;12.28;;;;;;;13.28;77.56;101548.47;1790417;79;21101;-75
2021/10/27 14:11:23;;;;;;;17.42;12.90;;;;;;;13.29;77.56;101552.92;1790074;79;21296;-75
2021/10/27 14:22:20;;;;;;;26.00;20.32;;;;;;;13.38;77.70;101560.22;1715418;82;21138;-75
2021/10/27 15:21:26;;;;;;;13.83;7.80;;;;;;;13.43;77.33;101504.38;1724836;83;21296;-75
2021/10/27 15:24:13;;;;;;;13.98;8.20;;;;;;;13.42;77.35;101514.52;1724398;83;21621;-76
2021/10/27 15:31:54;;;;;;;14.40;7.15;;;;;;;13.41;77.34;101527.25;1724792;81;21068;-75
2021/10/27 15:37:05;;;;;;;12.68;7.30;;;;;;;13.40;77.30;101521.08;1724696;83;21062;-75
2021/10/27 15:42:33;;;;;;;11.15;7.33;;;;;;;13.38;77.31;101514.86;1728775;82;21092;-75
2021/10/27 15:53:03;;;;;;;34.27;20.95;;;;;;;13.40;77.34;101530.34;1759766;81;21074;-75
2021/10/27 15:55:29;;;;;;;30.45;15.72;;;;;;;13.41;77.35;101528.14;1727822;82;21069;-75
2021/10/27 15:57:56;;;;;;;28.67;16.82;;;;;;;13.44;77.35;101543.61;1741689;82;21039;-76
2021/10/27 16:00:23;;;;;;;25.12;15.05;;;;;;;13.45;77.35;101544.98;1760704;81;22539;-75